Time;durP1;ratioP1;P1;durP2;ratioP2;P2;SDS_P1;SDS_P2;PMS_P1;PMS_P2;Temp;Humidity;BMP_temperature;BMP_pressure;BME280_temperature;BME280_humidity;BME280_pressure;Samples;Min_cycle;Max_cycle;Signal;HPM_P1;HPM_P2
2021/03/01 00:00:24;;;;;;;;;;;2.10;99.90;;;;;;5043732;28;19911;-78
2021/03/01 00:02:50;;;;;;;;;;;2.00;99.90;;;;;;5052112;28;20379;-77
2021/03/01 00:05:16;;;;;;;;;;;2.00;99.90;;;;;;5051806;28;20439;-78
2021/03/01 00:07:42;;;;;;;;;;;2.00;99.90;;;;;;5052051;28;19912;-77
2021/03/01 00:10:08;;;;;;;;;;;2.00;99.90;;;;;;5033495;28;19905;-78
2021/03/01 00:12:34;;;;;;;;;;;1.90;99.90;;;;;;5051786;28;19909;-78
2021/03/01 00:15:00;;;;;;;;;;;1.80;99.90;;;;;;5051161;28;19905;-78
2021/03/01 00:17:25;;;;;;;;;;;1.70;99.90;;;;;;5051800;28;19904;-78
2021/03/01 00:19:51;;;;;;;;;;;1.70;99.90;;;;;;5051679;28;19912;-78
2021/03/01 00:22:16;;;;;;;;;;;1.70;99.90;;;;;;5051687;28;20273;-77
2021/03/01 00:24:42;;;;;;;;;;;1.60;99.90;;;;;;5051361;28;19952;-77
2021/03/01 00:27:08;;;;;;;;;;;1.60;99.90;;;;;;5051633;28;19905;-77
2021/03/01 00:29:34;;;;;;;;;;;1.70;99.90;;;;;;5051455;28;19905;-77
2021/03/01 00:31:59;;;;;;;;;;;1.60;99.90;;;;;;5051561;28;19916;-77
2021/03/01 00:34:25;;;;;;;;;;;1.50;99.90;;;;;;5053135;28;19905;-78
2021/03/01 00:36:50;;;;;;;;;;;1.50;99.90;;;;;;5054758;28;19911;-78
2021/03/01 00:39:16;;;;;;;;;;;1.50;99.90;;;;;;5054956;28;19905;-77
2021/03/01 00:41:42;;;;;;;;;;;1.40;99.90;;;;;;5055108;28;20284;-77
2021/03/01 00:44:07;;;;;;;;;;;1.50;99.90;;;;;;5053063;28;19905;-78
2021/03/01 00:46:33;;;;;;;;;;;1.40;99.90;;;;;;5051514;28;19905;-77
2021/03/01 00:48:58;;;;;;;;;;;1.30;99.90;;;;;;5051152;28;19916;-78
2021/03/01 00:51:24;;;;;;;;;;;1.30;99.90;;;;;;5051058;28;19909;-77
2021/03/01 00:53:50;;;;;;;;;;;1.40;99.90;;;;;;5050786;28;19911;-78
2021/03/01 00:56:15;;;;;;;;;;;1.20;99.90;;;;;;5051082;28;19905;-78
2021/03/01 00:58:41;;;;;;;;;;;1.20;99.90;;;;;;5049991;28;19917;-78
2021/03/01 01:01:07;;;;;;;;;;;1.20;99.90;;;;;;5051037;28;19970;-77
2021/03/01 01:03:32;;;;;;;;;;;1.30;99.90;;;;;;5050866;28;19915;-78
2021/03/01 01:05:58;;;;;;;;;;;1.20;99.90;;;;;;5050437;28;19995;-77
2021/03/01 01:08:23;;;;;;;;;;;1.30;99.90;;;;;;5050830;28;19912;-77
2021/03/01 01:10:49;;;;;;;;;;;1.30;99.90;;;;;;5050565;28;20343;-77
2021/03/01 01:13:15;;;;;;;;;;;1.20;99.90;;;;;;5050310;28;19910;-78
2021/03/01 01:15:40;;;;;;;;;;;1.10;99.90;;;;;;5050291;28;19905;-78
2021/03/01 01:18:06;;;;;;;;;;;1.20;99.90;;;;;;5050653;28;20270;-77
2021/03/01 01:20:32;;;;;;;;;;;1.10;99.90;;;;;;5050526;28;19904;-77
2021/03/01 01:22:57;;;;;;;;;;;1.10;99.90;;;;;;5050816;28;19912;-77
2021/03/01 01:25:23;;;;;;;;;;;1.20;99.90;;;;;;5050028;28;19905;-77
2021/03/01 01:27:49;;;;;;;;;;;1.10;99.90;;;;;;5050503;28;20079;-77
2021/03/01 01:30:15;;;;;;;;;;;1.10;99.90;;;;;;5050346;28;19932;-77
2021/03/01 01:32:41;;;;;;;;;;;1.10;99.90;;;;;;5050614;28;19905;-77
2021/03/01 01:35:08;;;;;;;;;;;1.00;99.90;;;;;;5046728;28;19927;-77
2021/03/01 01:37:34;;;;;;;;;;;1.00;99.90;;;;;;5028387;28;19905;-77
2021/03/01 01:39:59;;;;;;;;;;;0.90;99.90;;;;;;5046912;28;20008;-78
2021/03/01 01:42:25;;;;;;;;;;;0.80;99.90;;;;;;5049973;28;20404;-78
2021/03/01 01:44:50;;;;;;;;;;;0.90;99.90;;;;;;5049353;28;19912;-78
2021/03/01 01:47:16;;;;;;;;;;;0.80;99.90;;;;;;5050196;28;20000;-78
2021/03/01 01:49:41;;;;;;;;;;;0.80;99.90;;;;;;5049923;28;19950;-77
2021/03/01 01:52:07;;;;;;;;;;;0.80;99.90;;;;;;5049934;28;19909;-77
2021/03/01 01:54:32;;;;;;;;;;;0.80;99.90;;;;;;5049402;28;19905;-77
2021/03/01 01:56:59;;;;;;;;;;;0.70;99.90;;;;;;5049789;28;20424;-77
2021/03/01 01:59:25;;;;;;;;;;;0.80;99.90;;;;;;5049819;28;19920;-77
2021/03/01 02:01:51;;;;;;;;;;;0.70;99.90;;;;;;5049854;28;19905;-77
2021/03/01 02:04:30;;;;;;;;;;;0.70;99.90;;;;;;5049870;28;19905;-78
2021/03/01 02:07:11;;;;;;;;;;;0.70;99.90;;;;;;5050462;28;20381;-77
2021/03/01 02:09:44;;;;;;;;;;;0.70;99.90;;;;;;5050273;28;20008;-77
2021/03/01 02:12:28;;;;;;;;;;;0.70;99.90;;;;;;5057338;28;20316;-78
2021/03/01 02:15:13;;;;;;;;;;;0.60;99.90;;;;;;5069908;28;19905;-78
2021/03/01 02:17:38;;;;;;;;;;;0.50;99.90;;;;;;5072198;28;19909;-78
2021/03/01 02:20:08;;;;;;;;;;;0.60;99.90;;;;;;5067885;28;19911;-78
2021/03/01 02:22:33;;;;;;;;;;;0.60;99.90;;;;;;5054147;28;19912;-77
2021/03/01 02:24:59;;;;;;;;;;;0.60;99.90;;;;;;5053510;28;19909;-77
2021/03/01 02:27:27;;;;;;;;;;;0.60;99.90;;;;;;5053271;28;19905;-77
2021/03/01 02:30:00;;;;;;;;;;;0.60;99.90;;;;;;5053543;28;19958;-77
2021/03/01 02:32:27;;;;;;;;;;;0.60;99.90;;;;;;5053540;28;19908;-77
2021/03/01 02:34:53;;;;;;;;;;;0.60;99.90;;;;;;5053413;28;19909;-77
2021/03/01 02:37:22;;;;;;;;;;;0.60;99.90;;;;;;5053583;28;20003;-77
2021/03/01 02:39:49;;;;;;;;;;;0.60;99.90;;;;;;5053323;28;19904;-77
2021/03/01 02:42:18;;;;;;;;;;;0.60;99.90;;;;;;5053459;28;20281;-77
2021/03/01 02:44:43;;;;;;;;;;;0.60;99.90;;;;;;5053183;28;20377;-77
2021/03/01 02:47:09;;;;;;;;;;;0.50;99.90;;;;;;5053259;28;19970;-77
2021/03/01 02:49:35;;;;;;;;;;;0.50;99.90;;;;;;5053191;28;19905;-77
2021/03/01 02:52:01;;;;;;;;;;;0.60;99.90;;;;;;5052962;28;19919;-77
2021/03/01 02:54:27;;;;;;;;;;;0.60;99.90;;;;;;5052700;28;20413;-78
2021/03/01 02:56:53;;;;;;;;;;;0.60;99.90;;;;;;5052990;28;20004;-77
2021/03/01 02:59:22;;;;;;;;;;;0.50;99.90;;;;;;5053179;28;19916;-77
2021/03/01 03:01:48;;;;;;;;;;;0.50;99.90;;;;;;5053014;28;19931;-77
2021/03/01 03:04:15;;;;;;;;;;;0.40;99.90;;;;;;5052878;28;19912;-77
2021/03/01 03:06:40;;;;;;;;;;;0.30;99.90;;;;;;5053003;28;20019;-77
2021/03/01 03:09:07;;;;;;;;;;;0.30;99.90;;;;;;5052654;28;19999;-78
2021/03/01 03:11:33;;;;;;;;;;;0.40;99.90;;;;;;5052726;28;19908;-77
2021/03/01 03:13:59;;;;;;;;;;;0.40;99.90;;;;;;5052349;28;20361;-78
2021/03/01 03:16:25;;;;;;;;;;;0.40;99.90;;;;;;5052806;28;20316;-79
2021/03/01 03:18:51;;;;;;;;;;;0.30;99.90;;;;;;5052495;28;19928;-77
2021/03/01 03:21:17;;;;;;;;;;;0.30;99.90;;;;;;5052314;28;19905;-77
2021/03/01 03:23:43;;;;;;;;;;;0.30;99.90;;;;;;5052248;28;19979;-77
2021/03/01 03:26:09;;;;;;;;;;;0.20;99.90;;;;;;5051800;28;19909;-77
2021/03/01 03:28:34;;;;;;;;;;;0.20;99.90;;;;;;5052195;28;19905;-77
2021/03/01 03:31:00;;;;;;;;;;;0.30;99.90;;;;;;5052364;28;20007;-78
2021/03/01 03:33:25;;;;;;;;;;;0.20;99.90;;;;;;5052444;28;20268;-78
2021/03/01 03:35:51;;;;;;;;;;;0.30;99.90;;;;;;5052291;28;20437;-77
2021/03/01 03:38:16;;;;;;;;;;;0.20;99.90;;;;;;5052089;28;19905;-78
2021/03/01 03:40:44;;;;;;;;;;;0.20;99.90;;;;;;5052810;28;20324;-77
2021/03/01 03:43:11;;;;;;;;;;;0.30;99.90;;;;;;5052163;28;19904;-78
2021/03/01 03:45:37;;;;;;;;;;;0.30;99.90;;;;;;5051819;28;19920;-77
2021/03/01 03:48:03;;;;;;;;;;;0.20;99.90;;;;;;5051908;28;20003;-78
2021/03/01 03:50:29;;;;;;;;;;;0.20;99.90;;;;;;5051887;28;19909;-77
2021/03/01 03:52:59;;;;;;;;;;;0.20;99.90;;;;;;5052096;28;19905;-78
2021/03/01 03:55:26;;;;;;;;;;;0.20;99.90;;;;;;5051651;28;19905;-78
2021/03/01 03:58:02;;;;;;;;;;;0.10;99.90;;;;;;5051780;28;19912;-78
2021/03/01 04:00:29;;;;;;;;;;;0.20;99.90;;;;;;5051821;28;19904;-78
2021/03/01 04:02:56;;;;;;;;;;;0.20;99.90;;;;;;5052057;28;20251;-77
2021/03/01 04:05:23;;;;;;;;;;;0.10;99.90;;;;;;5051413;28;20293;-78
2021/03/01 04:07:49;;;;;;;;;;;0.00;99.90;;;;;;5051973;28;19917;-77
2021/03/01 04:10:15;;;;;;;;;;;0.00;99.90;;;;;;5051500;28;19904;-78
2021/03/01 04:12:42;;;;;;;;;;;0.00;99.90;;;;;;5051612;28;20356;-77
2021/03/01 04:15:11;;;;;;;;;;;0.00;99.90;;;;;;5051053;28;19904;-77
2021/03/01 04:17:38;;;;;;;;;;;0.10;99.90;;;;;;5051566;28;20296;-78
2021/03/01 04:20:06;;;;;;;;;;;0.00;99.90;;;;;;5051559;28;19952;-78
2021/03/01 04:22:32;;;;;;;;;;;-0.10;99.90;;;;;;5051505;28;19912;-77
2021/03/01 04:24:58;;;;;;;;;;;0.00;99.90;;;;;;5050602;28;19905;-77
2021/03/01 04:27:24;;;;;;;;;;;0.00;99.90;;;;;;5051042;28;19934;-77
2021/03/01 04:29:50;;;;;;;;;;;-0.10;99.90;;;;;;5051112;28;19904;-77
2021/03/01 04:32:16;;;;;;;;;;;-0.10;99.90;;;;;;5051289;28;19908;-78
2021/03/01 04:34:42;;;;;;;;;;;-0.10;99.90;;;;;;5049734;28;19912;-78
2021/03/01 04:37:07;;;;;;;;;;;-0.10;99.90;;;;;;5051301;28;19905;-78
2021/03/01 04:39:33;;;;;;;;;;;-0.20;99.90;;;;;;5050637;28;20278;-78
2021/03/01 04:41:58;;;;;;;;;;;-0.20;99.90;;;;;;5051281;28;20345;-78
2021/03/01 04:44:24;;;;;;;;;;;-0.20;99.90;;;;;;5051186;28;19912;-78
2021/03/01 04:46:52;;;;;;;;;;;-0.20;99.90;;;;;;5056724;28;19991;-78
2021/03/01 04:49:17;;;;;;;;;;;-0.20;99.90;;;;;;5053419;28;19948;-78
2021/03/01 04:51:44;;;;;;;;;;;-0.10;99.90;;;;;;5051090;28;19963;-77
2021/03/01 04:54:10;;;;;;;;;;;-0.20;99.90;;;;;;5050298;28;20296;-78
2021/03/01 04:56:40;;;;;;;;;;;-0.20;99.90;;;;;;5050382;28;19904;-77
2021/03/01 04:59:06;;;;;;;;;;;-0.20;99.90;;;;;;5050640;28;20361;-77
2021/03/01 05:01:32;;;;;;;;;;;-0.10;99.90;;;;;;5051343;28;19904;-77
2021/03/01 05:03:58;;;;;;;;;;;-0.10;99.90;;;;;;5041708;28;19905;-77
2021/03/01 05:06:23;;;;;;;;;;;0.00;99.90;;;;;;5043119;28;19938;-78
2021/03/01 05:08:49;;;;;;;;;;;-0.10;99.90;;;;;;5034985;28;19932;-77
2021/03/01 05:11:31;;;;;;;;;;;-0.10;99.90;;;;;;5041202;28;19917;-77
2021/03/01 05:13:57;;;;;;;;;;;-0.10;99.90;;;;;;5042404;28;19904;-77
2021/03/01 05:16:23;;;;;;;;;;;0.00;99.90;;;;;;5051443;28;20311;-77
2021/03/01 05:18:49;;;;;;;;;;;-0.10;99.90;;;;;;5051064;28;19909;-78
2021/03/01 05:21:14;;;;;;;;;;;0.00;99.90;;;;;;5042843;28;19973;-78
2021/03/01 05:23:40;;;;;;;;;;;0.00;99.90;;;;;;5062079;28;19905;-77
2021/03/01 05:26:05;;;;;;;;;;;0.00;99.90;;;;;;5051497;28;19916;-78
2021/03/01 05:28:31;;;;;;;;;;;0.00;99.90;;;;;;5047707;28;19931;-78
2021/03/01 05:30:56;;;;;;;;;;;-0.10;99.90;;;;;;5040599;28;20000;-77
2021/03/01 05:33:22;;;;;;;;;;;-0.10;99.90;;;;;;5037770;28;19948;-77
2021/03/01 05:35:47;;;;;;;;;;;-0.10;99.90;;;;;;5039103;28;19905;-78
2021/03/01 05:38:13;;;;;;;;;;;-0.20;99.90;;;;;;5049656;28;20373;-77
2021/03/01 05:40:38;;;;;;;;;;;-0.10;99.90;;;;;;5043699;28;19999;-76
2021/03/01 05:43:04;;;;;;;;;;;-0.10;99.90;;;;;;5042868;28;19905;-77
2021/03/01 05:45:30;;;;;;;;;;;-0.10;99.90;;;;;;5050257;28;19905;-78
2021/03/01 05:47:55;;;;;;;;;;;-0.20;99.90;;;;;;5031658;28;19916;-77
2021/03/01 05:50:21;;;;;;;;;;;-0.20;99.90;;;;;;5037258;28;19909;-78
2021/03/01 05:52:49;;;;;;;;;;;-0.20;99.90;;;;;;5042626;28;20011;-77
2021/03/01 05:55:15;;;;;;;;;;;-0.20;99.90;;;;;;5047460;28;19920;-78
2021/03/01 05:57:41;;;;;;;;;;;-0.20;99.90;;;;;;5048368;28;19961;-79
2021/03/01 06:00:07;;;;;;;;;;;-0.20;99.90;;;;;;5050025;28;20277;-78
2021/03/01 06:02:33;;;;;;;;;;;-0.20;99.90;;;;;;5049991;28;19904;-77
2021/03/01 06:05:00;;;;;;;;;;;-0.20;99.90;;;;;;5049832;28;20334;-78
2021/03/01 06:07:26;;;;;;;;;;;-0.20;99.90;;;;;;5050164;28;19911;-77
2021/03/01 06:09:51;;;;;;;;;;;-0.20;99.90;;;;;;5049116;28;19904;-78
2021/03/01 06:12:17;;;;;;;;;;;-0.20;99.90;;;;;;5048437;28;19909;-77
2021/03/01 06:14:43;;;;;;;;;;;-0.20;99.90;;;;;;5048024;28;19905;-77
2021/03/01 06:17:18;;;;;;;;;;;-0.20;99.90;;;;;;5048492;28;19912;-78
2021/03/01 06:19:47;;;;;;;;;;;-0.20;99.90;;;;;;5048566;28;19905;-78
2021/03/01 06:22:13;;;;;;;;;;;-0.20;99.90;;;;;;5048849;28;19950;-77
2021/03/01 06:24:38;;;;;;;;;;;-0.20;99.90;;;;;;5052137;28;19905;-78
2021/03/01 06:27:05;;;;;;;;;;;-0.20;99.90;;;;;;5052404;28;19908;-77
2021/03/01 06:29:30;;;;;;;;;;;-0.10;99.90;;;;;;5054717;28;19933;-79
2021/03/01 06:31:56;;;;;;;;;;;-0.10;99.90;;;;;;5047790;28;19959;-79
2021/03/01 06:34:25;;;;;;;;;;;-0.10;99.90;;;;;;5047538;28;20362;-78
2021/03/01 06:37:09;;;;;;;;;;;0.10;99.90;;;;;;5047955;28;19971;-78
2021/03/01 06:39:45;;;;;;;;;;;0.10;99.90;;;;;;5047485;28;19958;-78
2021/03/01 06:42:20;;;;;;;;;;;0.10;99.90;;;;;;5047630;28;19905;-78
2021/03/01 06:44:46;;;;;;;;;;;0.20;99.90;;;;;;5031865;28;20668;-78
2021/03/01 06:47:12;;;;;;;;;;;0.20;99.90;;;;;;5030393;28;19916;-78
2021/03/01 06:49:39;;;;;;;;;;;0.30;99.90;;;;;;5034966;28;19905;-77
2021/03/01 06:52:05;;;;;;;;;;;0.40;99.90;;;;;;5029199;28;20000;-78
2021/03/01 06:54:31;;;;;;;;;;;0.50;99.90;;;;;;5028631;28;19905;-78
2021/03/01 06:56:56;;;;;;;;;;;0.50;99.90;;;;;;5029718;28;19913;-78
2021/03/01 06:59:23;;;;;;;;;;;0.60;99.90;;;;;;5032369;28;19924;-78
2021/03/01 07:01:49;;;;;;;;;;;0.70;99.90;;;;;;5032405;28;19963;-78
2021/03/01 07:04:22;;;;;;;;;;;0.80;99.90;;;;;;5031929;28;19913;-78
2021/03/01 07:06:47;;;;;;;;;;;0.80;99.90;;;;;;5025930;28;20355;-78
2021/03/01 07:09:14;;;;;;;;;;;0.90;99.90;;;;;;5031192;28;19911;-78
2021/03/01 07:11:39;;;;;;;;;;;0.90;99.90;;;;;;5032193;28;19913;-78
2021/03/01 07:14:05;;;;;;;;;;;1.00;99.90;;;;;;5032668;28;19916;-78
2021/03/01 07:16:34;;;;;;;;;;;1.10;99.90;;;;;;5033149;28;20330;-78
2021/03/01 07:19:00;;;;;;;;;;;1.30;99.90;;;;;;5032763;28;19905;-78
2021/03/01 07:21:26;;;;;;;;;;;1.60;99.90;;;;;;5033112;28;19905;-78
2021/03/01 07:23:53;;;;;;;;;;;1.70;99.90;;;;;;5027591;28;19906;-79
2021/03/01 07:26:23;;;;;;;;;;;1.80;99.90;;;;;;5020071;28;19905;-79
2021/03/01 07:28:59;;;;;;;;;;;1.90;99.90;;;;;;5024363;28;19908;-79
2021/03/01 07:31:25;;;;;;;;;;;2.00;99.90;;;;;;5030528;28;19932;-79
2021/03/01 07:33:51;;;;;;;;;;;2.30;99.90;;;;;;5040756;28;20353;-79
2021/03/01 07:36:17;;;;;;;;;;;2.80;99.90;;;;;;5036567;28;20359;-79
2021/03/01 07:38:43;;;;;;;8.63;4.10;;;3.90;99.90;;;;;;5036211;28;19943;-79
2021/03/01 07:41:09;;;;;;;6.07;3.72;;;5.00;99.90;;;;;;5039416;28;20797;-79
2021/03/01 07:43:38;;;;;;;7.80;3.67;;;6.20;99.90;;;;;;5031560;28;20026;-79
2021/03/01 07:46:04;;;;;;;7.20;4.30;;;7.30;99.90;;;;;;5031342;28;20561;-79
2021/03/01 07:48:38;;;;;;;7.63;3.60;;;7.80;99.90;;;;;;5031453;28;20029;-79
2021/03/01 07:51:04;;;;;;;4.97;2.90;;;8.00;99.90;;;;;;5031413;28;20676;-79
2021/03/01 07:53:51;;;;;;;7.65;3.78;;;8.00;99.90;;;;;;5031428;28;20025;-79
2021/03/01 07:56:22;;;;;;;;;;;8.10;99.90;;;;;;5018411;28;20122;-79
2021/03/01 07:58:54;;;;;;;6.95;2.85;;;9.00;99.90;;;;;;5028111;28;20007;-79
2021/03/01 08:01:20;;;;;;;6.05;3.53;;;9.80;99.90;;;;;;5011571;28;20030;-79
2021/03/01 08:03:45;;;;;;;8.18;4.05;;;10.60;99.90;;;;;;5011520;28;20072;-79
2021/03/01 08:06:11;;;;;;;8.65;4.38;;;10.60;99.90;;;;;;5011210;28;20080;-78
2021/03/01 08:08:48;;;;;;;6.10;3.38;;;11.20;99.90;;;;;;5011847;28;20112;-80
2021/03/01 08:11:14;;;;;;;8.43;4.18;;;11.40;99.90;;;;;;5011473;28;20116;-79
2021/03/01 08:13:40;;;;;;;6.43;4.32;;;11.60;99.90;;;;;;5011494;28;20084;-80
2021/03/01 08:16:18;;;;;;;7.63;4.05;;;12.40;99.90;;;;;;5012182;28;20574;-80
2021/03/01 08:18:51;;;;;;;6.15;4.05;;;13.70;99.90;;;;;;5046833;28;20025;-80
2021/03/01 08:21:16;;;;;;;6.72;3.92;;;14.30;95.80;;;;;;5059278;28;20099;-81
2021/03/01 08:23:42;;;;;;;7.90;4.32;;;15.50;80.50;;;;;;5057620;28;20036;-81
2021/03/01 08:26:09;;;;;;;8.00;4.22;;;17.00;75.90;;;;;;5057109;28;20088;-81
2021/03/01 08:28:36;;;;;;;7.18;3.58;;;17.50;65.50;;;;;;5060125;28;20021;-84
2021/03/01 08:31:18;;;;;;;9.57;4.40;;;18.30;64.10;;;;;;5037023;28;20105;-81
2021/03/01 08:33:45;;;;;;;5.57;3.88;;;;;;;;;;5011828;28;20033;-80
2021/03/01 08:36:11;;;;;;;6.95;4.25;;;;;;;;;;5012360;28;20018;-80
2021/03/01 08:38:45;;;;;;;6.32;3.92;;;;;;;;;;5011139;28;20494;-80
2021/03/01 08:41:12;;;;;;;7.55;4.47;;;;;;;;;;5034644;28;20037;-80
2021/03/01 08:43:38;;;;;;;8.00;4.70;;;;;;;;;;5042029;28;20028;-80
2021/03/01 08:46:05;;;;;;;5.68;3.70;;;;;;;;;;5032562;28;20049;-79
2021/03/01 08:48:31;;;;;;;4.30;3.47;;;;;;;;;;5034853;28;20114;-81
2021/03/01 08:50:57;;;;;;;5.80;4.23;;;;;;;;;;5034444;28;20433;-82
2021/03/01 08:53:24;;;;;;;5.00;4.00;;;;;;;;;;5033208;28;20037;-79
2021/03/01 08:55:50;;;;;;;5.20;3.92;;;;;;;;;;5043089;28;20033;-81
2021/03/01 08:58:16;;;;;;;;;;;;;;;;;;5044702;28;20116;-81
2021/03/01 09:00:58;;;;;;;6.37;4.20;;;;;;;;;;5033617;28;19961;-80
2021/03/01 09:03:26;;;;;;;6.63;5.10;;;;;;;;;;5030090;28;20033;-81
2021/03/01 09:05:53;;;;;;;8.55;4.88;;;;;;;;;;5040053;28;20022;-80
2021/03/01 09:08:27;;;;;;;7.38;4.88;;;;;;;;;;5031363;28;20037;-79
2021/03/01 09:10:53;;;;;;;6.43;4.38;;;;;;;;;;5033046;28;20063;-81
2021/03/01 09:13:20;;;;;;;8.25;5.05;;;;;;;;;;5045245;28;20059;-80
2021/03/01 09:15:47;;;;;;;7.05;4.90;;;;;;;;;;5049990;28;20024;-79
2021/03/01 09:18:13;;;;;;;7.80;5.18;;;;;;;;;;5038207;28;20057;-81
2021/03/01 09:20:44;;;;;;;6.15;4.43;;;;;;;;;;5040859;28;20033;-79
2021/03/01 09:23:11;;;;;;;9.82;5.05;;;;;;;;;;5044974;28;20111;-80
2021/03/01 09:25:37;;;;;;;7.78;5.35;;;;;;;;;;5042739;28;20017;-80
2021/03/01 09:28:04;;;;;;;7.07;4.93;;;;;;;;;;5044333;28;20124;-81
2021/03/01 09:30:31;;;;;;;6.30;4.88;;;;;;;;;;5036394;28;20036;-82
2021/03/01 09:33:02;;;;;;;8.05;5.05;;;;;;;;;;5040675;28;20096;-81
2021/03/01 09:35:29;;;;;;;8.50;4.97;;;;;;;;;;5034808;28;20033;-80
2021/03/01 09:37:56;;;;;;;7.10;5.15;;;;;;;;;;5046384;28;20028;-81
2021/03/01 09:40:21;;;;;;;;;;;;;;;;;;5031597;28;20090;-81
2021/03/01 09:42:49;;;;;;;6.75;4.15;;;;;;;;;;5039020;28;19908;-81
2021/03/01 09:45:16;;;;;;;6.50;4.30;;;;;;;;;;5042756;28;20029;-82
2021/03/01 09:47:42;;;;;;;7.35;4.78;;;;;;;;;;5050290;28;20021;-81
2021/03/01 09:50:09;;;;;;;6.72;4.63;;;;;;;;;;5038327;28;20030;-80
2021/03/01 09:52:35;;;;;;;;;;;;;;;;;;5038767;28;20030;-81
2021/03/01 09:55:01;;;;;;;8.10;5.45;;;;;;;;;;5031570;28;19905;-80
2021/03/01 09:57:30;;;;;;;6.88;5.05;;;;;;;;;;5038305;28;20069;-81
2021/03/01 09:59:57;;;;;;;7.15;5.13;;;;;;;;;;5030367;28;20021;-79
2021/03/01 10:02:26;;;;;;;9.18;5.00;;;;;;;;;;5029922;28;20026;-80
2021/03/01 10:05:12;;;;;;;7.57;4.95;;;;;;;;;;5038173;28;20481;-80
2021/03/01 10:07:38;;;;;;;6.05;4.40;;;;;;;;;;5037503;28;20025;-80
2021/03/01 10:10:17;;;;;;;8.60;5.70;;;;;;;;;;5032280;28;20113;-80
2021/03/01 10:12:44;;;;;;;6.75;4.97;;;;;;;;;;5034160;28;20029;-81
2021/03/01 10:15:11;;;;;;;7.15;4.07;;;;;;;;;;5034300;28;20728;-80
2021/03/01 10:17:37;;;;;;;6.50;4.28;;;;;;;;;;5034167;28;20033;-80
2021/03/01 10:20:02;;;;;;;;;;;;;;;;;;5033515;28;20064;-80
2021/03/01 10:22:28;;;;;;;;;;;;;;;;;;5041111;28;19912;-80
2021/03/01 10:24:54;;;;;;;7.40;4.80;;;;;;;;;;5042780;28;19913;-80
2021/03/01 10:27:20;;;;;;;5.20;4.40;;;;;;;;;;5032706;28;20570;-80
2021/03/01 10:29:53;;;;;;;8.60;5.30;;;;;;;;;;5033187;28;20268;-80
2021/03/01 10:32:22;;;;;;;7.97;4.38;;;;;;;;;;5035410;28;20029;-80
2021/03/01 10:34:48;;;;;;;7.55;4.55;;;;;;;;;;5034052;28;20056;-80
2021/03/01 10:37:15;;;;;;;6.63;4.55;;;;;;;;;;5033533;28;20651;-80
2021/03/01 10:39:42;;;;;;;7.30;4.68;;;;;;;;;;5036005;28;20022;-81
2021/03/01 10:42:14;;;;;;;8.20;5.22;;;;;;;;;;5035734;28;20030;-80
2021/03/01 10:44:44;;;;;;;7.45;5.10;;;;;;;;;;5035715;28;20029;-80
2021/03/01 10:47:15;;;;;;;7.35;4.70;;;;;;;;;;5045879;28;20033;-81
2021/03/01 10:49:41;;;;;;;;;;;;;;;;;;5055359;28;20025;-80
2021/03/01 10:52:06;;;;;;;;;;;;;;;;;;5046783;28;19975;-80
2021/03/01 10:54:32;;;;;;;;;;;;;;;;;;5052601;28;19905;-80
2021/03/01 10:56:58;;;;;;;8.87;5.07;;;;;;;;;;5048869;28;19913;-80
2021/03/01 10:59:24;;;;;;;7.23;4.93;;;;;;;;;;5048200;28;20029;-79
2021/03/01 11:01:50;;;;;;;8.13;5.80;;;;;;;;;;5040682;28;20060;-79
2021/03/01 11:04:16;;;;;;;;;;;;;;;;;;5047752;28;20470;-79
2021/03/01 11:06:42;;;;;;;11.10;5.40;;;18.80;61.00;;;;;;5039732;28;19920;-78
2021/03/01 11:09:09;;;;;;;;;;;19.40;48.00;;;;;;5042171;28;19983;-79
2021/03/01 11:11:35;;;;;;;;;;;19.50;46.70;;;;;;5042369;28;19927;-79
2021/03/01 11:14:01;;;;;;;;;;;18.90;48.70;;;;;;5044722;28;19985;-78
2021/03/01 11:16:27;;;;;;;8.80;4.90;;;19.40;47.50;;;;;;5041608;28;19905;-79
2021/03/01 11:18:52;;;;;;;;;;;20.00;47.90;;;;;;5045996;28;20025;-81
2021/03/01 11:21:18;;;;;;;8.10;4.97;;;20.20;48.30;;;;;;5039397;28;20393;-80
2021/03/01 11:23:44;;;;;;;;;;;19.90;47.50;;;;;;5046690;28;20025;-77
2021/03/01 11:26:10;;;;;;;;;;;20.00;46.70;;;;;;5041986;28;19913;-79
2021/03/01 11:28:35;;;;;;;;;;;20.40;45.20;;;;;;5043634;28;19905;-79
2021/03/01 11:31:01;;;;;;;;;;;20.20;45.10;;;;;;5049178;28;19904;-81
2021/03/01 11:33:27;;;;;;;;;;;19.80;47.30;;;;;;5042079;28;19944;-78
2021/03/01 11:35:54;;;;;;;;;;;19.50;46.50;;;;;;5046345;28;19904;-79
2021/03/01 11:38:24;;;;;;;;;;;18.50;48.50;;;;;;5044167;28;20385;-79
2021/03/01 11:40:50;;;;;;;;;;;19.90;46.30;;;;;;5043333;28;20008;-79
2021/03/01 11:43:15;;;;;;;;;;;21.30;43.30;;;;;;5036220;28;20361;-78
2021/03/01 11:45:40;;;;;;;;;;;21.70;43.20;;;;;;5041612;28;19951;-78
2021/03/01 11:48:06;;;;;;;;;;;21.80;43.20;;;;;;5039214;28;19912;-79
2021/03/01 11:50:32;;;;;;;;;;;20.50;43.40;;;;;;5031776;28;19909;-78
2021/03/01 11:52:58;;;;;;;;;;;20.20;46.00;;;;;;5042269;28;19912;-78
2021/03/01 11:55:23;;;;;;;;;;;20.70;44.00;;;;;;5039015;28;19978;-78
2021/03/01 11:57:49;;;;;;;;;;;21.20;44.20;;;;;;5045402;28;20326;-79
2021/03/01 12:00:16;;;;;;;;;;;21.60;42.90;;;;;;5037296;28;19905;-78
2021/03/01 12:02:42;;;;;;;;;;;21.70;43.20;;;;;;5042877;28;19909;-79
2021/03/01 12:05:08;;;;;;;;;;;20.80;43.20;;;;;;5039684;28;20020;-80
2021/03/01 12:07:35;;;;;;;8.03;4.97;;;20.80;44.80;;;;;;5031307;28;20405;-79
2021/03/01 12:10:00;;;;;;;8.82;4.55;;;22.10;44.10;;;;;;5043067;28;20261;-79
2021/03/01 12:12:26;;;;;;;8.25;4.53;;;21.60;42.20;;;;;;5041038;28;20490;-79
2021/03/01 12:14:51;;;;;;;6.38;3.80;;;21.20;42.90;;;;;;5030604;28;20029;-80
2021/03/01 12:17:17;;;;;;;6.05;3.47;;;21.80;40.30;;;;;;5039867;28;20025;-79
2021/03/01 12:19:43;;;;;;;6.68;4.28;;;21.40;41.40;;;;;;5035493;28;20030;-79
2021/03/01 12:22:08;;;;;;;7.95;5.13;;;20.70;44.00;;;;;;5036899;28;20060;-79
2021/03/01 12:24:34;;;;;;;6.35;4.03;;;20.70;43.60;;;;;;5029386;28;20423;-79
2021/03/01 12:27:00;;;;;;;6.80;3.83;;;20.40;43.30;;;;;;5044068;28;20059;-78
2021/03/01 12:29:26;;;;;;;4.70;2.80;;;19.70;41.50;;;;;;5029119;28;20021;-79
2021/03/01 12:31:51;;;;;;;;;;;18.90;43.20;;;;;;5027740;28;20025;-79
2021/03/01 12:34:17;;;;;;;;;;;17.40;44.00;;;;;;5031403;28;19951;-78
2021/03/01 12:36:42;;;;;;;;;;;16.50;45.00;;;;;;5031942;28;19905;-79
2021/03/01 12:39:07;;;;;;;;;;;15.40;47.40;;;;;;5030601;28;20480;-77
2021/03/01 12:41:33;;;;;;;;;;;14.40;48.90;;;;;;5035598;28;19923;-78
2021/03/01 12:43:58;;;;;;;;;;;14.00;50.60;;;;;;5033267;28;19909;-78
2021/03/01 12:46:24;;;;;;;;;;;13.80;51.20;;;;;;5030471;28;19917;-78
2021/03/01 12:48:50;;;;;;;;;;;13.60;53.10;;;;;;5030578;28;20010;-78
2021/03/01 12:51:16;;;;;;;;;;;13.50;52.20;;;;;;5027538;28;20576;-77
2021/03/01 12:53:42;;;;;;;;;;;13.50;53.30;;;;;;5028881;28;20358;-80
2021/03/01 12:56:07;;;;;;;;;;;13.30;52.90;;;;;;5027209;28;19995;-78
2021/03/01 12:58:33;;;;;;;;;;;13.30;54.30;;;;;;5036363;28;20378;-78
2021/03/01 13:00:58;;;;;;;;;;;13.30;53.20;;;;;;5038476;28;19940;-78
2021/03/01 13:03:24;;;;;;;;;;;13.30;53.60;;;;;;5050656;28;20424;-78
2021/03/01 13:05:49;;;;;;;;;;;13.10;53.10;;;;;;5049991;28;19916;-77
2021/03/01 13:08:15;;;;;;;;;;;13.10;55.00;;;;;;5050666;28;19905;-77
2021/03/01 13:10:41;;;;;;;;;;;13.20;54.60;;;;;;5031522;28;20367;-78
2021/03/01 13:13:06;;;;;;;;;;;13.10;54.80;;;;;;5030640;28;19975;-78
2021/03/01 13:15:32;;;;;;;;;;;13.20;55.60;;;;;;5028222;28;19912;-77
2021/03/01 13:17:57;;;;;;;;;;;13.20;54.80;;;;;;5040556;28;19909;-78
2021/03/01 13:20:23;;;;;;;;;;;13.20;56.20;;;;;;5041583;28;19913;-78
2021/03/01 13:22:48;;;;;;;;;;;13.10;56.30;;;;;;5041174;28;20491;-78
2021/03/01 13:25:14;;;;;;;;;;;13.10;56.40;;;;;;5048173;28;20046;-78
2021/03/01 13:27:39;;;;;;;;;;;13.10;56.70;;;;;;5035946;28;19931;-78
2021/03/01 13:30:07;;;;;;;;;;;13.10;56.70;;;;;;5041944;28;19971;-78
2021/03/01 13:32:32;;;;;;;;;;;13.10;57.40;;;;;;5038391;28;20263;-78
2021/03/01 13:34:58;;;;;;;;;;;13.10;55.80;;;;;;5029656;28;19960;-78
2021/03/01 13:37:23;;;;;;;;;;;13.10;57.50;;;;;;5030222;28;19909;-78
2021/03/01 13:39:49;;;;;;;;;;;13.10;58.40;;;;;;5029950;28;19935;-78
2021/03/01 13:42:14;;;;;;;;;;;13.20;60.10;;;;;;5030032;28;19963;-78
2021/03/01 13:44:40;;;;;;;;;;;13.20;61.00;;;;;;5029557;28;19955;-78
2021/03/01 13:47:06;;;;;;;;;;;13.10;58.70;;;;;;5029884;28;19905;-78
2021/03/01 13:49:32;;;;;;;;;;;13.20;58.60;;;;;;5029954;28;19905;-78
2021/03/01 13:51:57;;;;;;;;;;;13.10;58.10;;;;;;5028834;28;19905;-78
2021/03/01 13:54:23;;;;;;;;;;;13.20;57.80;;;;;;5048553;28;19912;-78
2021/03/01 13:56:49;;;;;;;;;;;13.20;60.90;;;;;;5038679;28;19910;-78
2021/03/01 13:59:14;;;;;;;;;;;13.10;59.40;;;;;;5035648;28;20016;-78
2021/03/01 14:01:40;;;;;;;;;;;13.20;60.50;;;;;;5040633;28;20007;-78
2021/03/01 14:04:06;;;;;;;;;;;13.20;60.90;;;;;;5039242;28;20274;-77
2021/03/01 14:06:31;;;;;;;;;;;13.30;60.30;;;;;;5051471;28;19904;-78
2021/03/01 14:08:57;;;;;;;;;;;13.40;59.80;;;;;;5053761;28;20354;-78
2021/03/01 14:11:22;;;;;;;;;;;13.40;59.40;;;;;;5053680;28;19958;-78
2021/03/01 14:13:48;;;;;;;;;;;13.30;59.60;;;;;;5053385;28;19921;-78
2021/03/01 14:16:13;;;;;;;;;;;13.20;59.90;;;;;;5053459;28;19905;-78